Time;durP1;ratioP1;P1;durP2;ratioP2;P2;SDS_P1;SDS_P2;PMS_P1;PMS_P2;Temp;Humidity;BMP_temperature;BMP_pressure;BME280_temperature;BME280_humidity;BME280_pressure;Samples;Min_cycle;Max_cycle;Signal;HPM_P1;HPM_P2
2021/10/06 00:01:03;;;;;;;10.48;1.98;;;;;;;11.08;80.25;100702.63;5006721;28;20457;-74
2021/10/06 00:03:29;;;;;;;6.30;1.30;;;;;;;10.90;80.57;100716.53;5012388;28;20036;-74
2021/10/06 00:05:54;;;;;;;6.63;1.25;;;;;;;10.83;80.46;100712.97;5016167;28;20454;-73
2021/10/06 00:08:20;;;;;;;3.90;1.40;;;;;;;10.77;81.10;100713.59;5010692;28;20040;-73
2021/10/06 00:10:46;;;;;;;7.15;2.20;;;;;;;10.74;80.66;100718.28;5016924;28;20040;-73
2021/10/06 00:13:14;;;;;;;4.35;1.50;;;;;;;10.71;80.74;100711.66;5013397;28;20600;-73
2021/10/06 00:15:41;;;;;;;5.50;1.50;;;;;;;10.78;80.69;100714.44;5010808;28;20037;-73
2021/10/06 00:18:06;;;;;;;6.95;1.30;;;;;;;10.64;80.80;100708.06;5016438;28;20037;-73
2021/10/06 00:20:32;;;;;;;7.50;1.85;;;;;;;10.77;80.03;100705.81;5008467;28;20025;-73
2021/10/06 00:22:57;;;;;;;5.75;1.55;;;;;;;10.75;80.67;100712.16;5014920;28;20149;-73
2021/10/06 00:25:22;;;;;;;14.82;2.38;;;;;;;10.68;81.03;100710.19;5011904;28;20033;-74
2021/10/06 00:27:49;;;;;;;12.23;2.47;;;;;;;10.64;80.89;100718.44;5014800;28;20040;-74
2021/10/06 00:30:15;;;;;;;14.80;2.60;;;;;;;10.57;81.13;100714.84;5009864;28;20577;-73
2021/10/06 00:32:41;;;;;;;14.07;3.00;;;;;;;10.51;81.11;100721.50;5012615;28;20439;-74
2021/10/06 00:35:07;;;;;;;12.27;2.45;;;;;;;10.62;81.67;100730.75;5013802;28;20104;-73
2021/10/06 00:37:32;;;;;;;15.57;3.00;;;;;;;10.64;81.06;100727.03;5011335;28;20030;-75
2021/10/06 00:39:58;;;;;;;10.95;2.45;;;;;;;10.68;81.27;100727.50;5014921;28;20324;-72
2021/10/06 00:42:23;;;;;;;10.05;1.83;;;;;;;10.63;81.21;100727.19;5011727;28;20036;-74
2021/10/06 00:44:49;;;;;;;11.82;2.38;;;;;;;10.61;81.40;100735.13;5007262;28;20554;-74
2021/10/06 00:47:14;;;;;;;12.60;3.10;;;;;;;10.51;81.17;100737.06;5012767;28;20611;-73
2021/10/06 00:49:41;;;;;;;10.40;2.35;;;;;;;10.52;81.63;100741.25;5007603;28;20033;-75
2021/10/06 00:52:07;;;;;;;9.20;2.63;;;;;;;10.51;81.57;100727.47;5008826;28;20096;-75
2021/10/06 00:54:35;;;;;;;10.82;3.03;;;;;;;10.57;81.15;100730.41;5007972;28;20503;-73
2021/10/06 00:57:00;;;;;;;11.60;3.08;;;;;;;10.62;81.06;100741.13;5014875;28;20051;-73
2021/10/06 00:59:26;;;;;;;14.77;3.03;;;;;;;10.56;81.52;100750.34;5010694;28;20034;-75
2021/10/06 01:01:51;;;;;;;16.50;3.25;;;;;;;10.43;82.28;100748.19;5011929;28;20048;-76
2021/10/06 01:04:17;;;;;;;11.18;2.38;;;;;;;10.50;82.14;100749.19;5023548;28;20041;-74
2021/10/06 01:06:43;;;;;;;12.02;1.95;;;;;;;10.50;82.00;100740.59;4994818;28;20034;-74
2021/10/06 01:09:08;;;;;;;18.13;3.95;;;;;;;10.41;82.13;100751.91;5011475;28;20489;-73
2021/10/06 01:11:33;;;;;;;14.57;3.63;;;;;;;10.42;82.72;100745.75;5016597;28;20036;-73
2021/10/06 01:13:59;;;;;;;10.90;2.55;;;;;;;10.50;82.20;100743.19;5010935;28;20037;-73
2021/10/06 01:16:25;;;;;;;10.55;2.50;;;;;;;10.45;82.41;100748.84;5014377;28;20025;-73
2021/10/06 01:18:51;;;;;;;11.85;3.00;;;;;;;10.57;81.85;100740.75;5007847;28;20038;-74
2021/10/06 01:21:18;;;;;;;8.77;1.88;;;;;;;10.62;81.21;100749.69;5012363;28;20462;-73
2021/10/06 01:23:49;;;;;;;11.35;2.45;;;;;;;10.52;81.81;100755.03;5010224;28;20088;-73
2021/10/06 01:26:19;;;;;;;12.32;2.83;;;;;;;10.60;82.06;100743.84;5016709;28;20037;-73
2021/10/06 01:28:53;;;;;;;13.65;2.58;;;;;;;10.64;81.26;100749.53;5004826;28;20372;-76
2021/10/06 01:31:26;;;;;;;12.02;3.78;;;;;;;10.65;81.64;100736.44;5011580;28;20148;-74
2021/10/06 01:33:51;;;;;;;11.10;2.85;;;;;;;10.65;81.27;100743.41;5009066;28;20037;-74
2021/10/06 01:36:17;;;;;;;10.57;2.85;;;;;;;10.72;81.05;100747.00;5024449;28;20044;-74
2021/10/06 01:38:42;;;;;;;14.18;2.67;;;;;;;10.79;80.98;100745.38;5011649;28;20034;-74
2021/10/06 01:41:08;;;;;;;7.43;2.50;;;;;;;10.78;81.17;100750.75;4995383;28;20040;-74
2021/10/06 01:43:33;;;;;;;10.98;1.83;;;;;;;10.87;80.36;100744.59;5008937;28;20044;-73
2021/10/06 01:45:59;;;;;;;6.45;1.40;;;;;;;10.80;80.20;100748.78;5011169;28;20087;-73
2021/10/06 01:48:24;;;;;;;12.02;2.90;;;;;;;10.69;80.67;100753.28;5014909;28;20630;-74
2021/10/06 01:50:50;;;;;;;4.38;1.40;;;;;;;10.79;80.28;100750.56;5007818;28;20029;-74
2021/10/06 01:53:16;;;;;;;10.25;1.67;;;;;;;10.76;80.41;100752.69;5010159;28;20033;-74
2021/10/06 01:55:43;;;;;;;12.50;2.17;;;;;;;10.68;80.87;100749.09;5008459;28;20038;-77
2021/10/06 01:58:11;;;;;;;7.32;1.67;;;;;;;10.74;80.88;100762.38;5014051;28;20104;-75
2021/10/06 02:00:38;;;;;;;16.48;1.75;;;;;;;10.68;80.51;100748.25;5010457;28;20033;-74
2021/10/06 02:03:03;;;;;;;8.73;1.42;;;;;;;10.62;81.14;100762.66;5015319;28;20112;-77
2021/10/06 02:05:33;;;;;;;11.32;1.58;;;;;;;10.64;81.08;100768.53;5008771;28;20757;-74
2021/10/06 02:07:59;;;;;;;10.07;1.63;;;;;;;10.66;81.26;100766.59;5005398;28;20042;-74
2021/10/06 02:10:24;;;;;;;7.65;1.45;;;;;;;10.70;81.08;100761.91;5006697;28;20026;-75
2021/10/06 02:12:50;;;;;;;6.57;1.75;;;;;;;10.66;81.09;100764.00;5010594;28;20038;-75
2021/10/06 02:15:15;;;;;;;10.02;1.80;;;;;;;10.66;81.16;100756.22;5006790;28;20041;-75
2021/10/06 02:17:41;;;;;;;9.68;1.65;;;;;;;10.56;81.36;100758.13;5017414;28;20041;-75
2021/10/06 02:20:07;;;;;;;6.50;1.42;;;;;;;10.54;81.48;100759.25;4992057;28;20031;-74
2021/10/06 02:22:32;;;;;;;11.93;1.70;;;;;;;10.54;81.23;100767.84;5006522;28;20117;-73
2021/10/06 02:24:58;;;;;;;17.40;2.35;;;;;;;10.51;81.22;100766.38;5011060;28;20451;-73
2021/10/06 02:27:23;;;;;;;12.32;1.70;;;;;;;10.62;80.87;100767.03;5006862;28;20045;-76
2021/10/06 02:29:49;;;;;;;12.40;2.70;;;;;;;10.56;80.99;100772.88;5007470;28;20444;-74
2021/10/06 02:32:14;;;;;;;9.85;2.42;;;;;;;10.58;81.13;100769.13;5010978;28;20086;-74
2021/10/06 02:34:39;;;;;;;12.98;1.60;;;;;;;10.57;81.12;100771.88;5008928;28;20037;-74
2021/10/06 02:37:05;;;;;;;6.88;1.65;;;;;;;10.56;81.17;100765.09;5011416;28;20598;-74
2021/10/06 02:39:30;;;;;;;11.32;1.63;;;;;;;10.47;81.82;100766.81;5008439;28;20045;-74
2021/10/06 02:41:56;;;;;;;12.15;1.85;;;;;;;10.43;81.55;100765.50;5010212;28;20033;-73
2021/10/06 02:44:21;;;;;;;12.48;2.45;;;;;;;10.59;81.08;100773.38;5010142;28;20037;-74
2021/10/06 02:46:47;;;;;;;7.55;1.83;;;;;;;10.43;81.39;100773.28;5008889;28;20272;-73
2021/10/06 02:49:13;;;;;;;11.18;2.38;;;;;;;10.38;81.54;100772.94;5007603;28;20218;-74
2021/10/06 02:51:38;;;;;;;9.95;1.63;;;;;;;10.37;81.01;100781.69;5009063;28;20049;-73
2021/10/06 02:54:04;;;;;;;22.60;3.03;;;;;;;10.30;81.17;100777.13;5016331;28;20049;-75
2021/10/06 02:56:29;;;;;;;10.38;1.58;;;;;;;10.26;81.50;100775.78;5011527;28;20045;-75
2021/10/06 02:58:55;;;;;;;8.45;2.05;;;;;;;10.20;81.96;100773.81;5011939;28;20033;-74
2021/10/06 03:01:20;;;;;;;11.38;1.92;;;;;;;10.38;81.40;100778.97;5012704;28;20037;-74
2021/10/06 03:03:46;;;;;;;11.27;1.67;;;;;;;10.31;81.13;100770.16;5011853;28;20084;-75
2021/10/06 03:06:11;;;;;;;8.25;1.50;;;;;;;10.26;81.72;100780.16;5015135;28;20037;-75
2021/10/06 03:08:37;;;;;;;14.15;2.50;;;;;;;10.41;81.61;100785.59;5007949;28;20022;-75
2021/10/06 03:11:03;;;;;;;14.63;2.63;;;;;;;10.37;81.15;100779.91;5012135;28;20042;-75
2021/10/06 03:13:29;;;;;;;16.00;1.88;;;;;;;10.41;80.79;100783.81;5013216;28;20029;-74
2021/10/06 03:15:59;;;;;;;19.52;2.53;;;;;;;10.33;81.42;100779.41;5010177;28;20037;-75
2021/10/06 03:18:25;;;;;;;21.52;3.28;;;;;;;10.47;80.90;100788.41;5000200;28;20033;-75
2021/10/06 03:20:50;;;;;;;9.95;2.13;;;;;;;10.47;80.74;100792.75;5005425;28;20029;-75
2021/10/06 03:23:16;;;;;;;15.93;2.05;;;;;;;10.41;80.61;100785.59;5015523;28;20037;-76
2021/10/06 03:25:41;;;;;;;10.75;2.10;;;;;;;10.42;80.86;100787.25;5015919;28;20152;-72
2021/10/06 03:28:07;;;;;;;19.10;2.90;;;;;;;10.43;81.04;100789.66;5006906;28;20553;-73
2021/10/06 03:30:33;;;;;;;17.67;2.67;;;;;;;10.51;80.57;100797.50;5011072;28;20036;-73
2021/10/06 03:32:58;;;;;;;12.23;3.03;;;;;;;10.55;80.07;100791.97;5010711;28;20033;-75
2021/10/06 03:35:24;;;;;;;12.02;2.30;;;;;;;10.51;80.78;100783.72;5014343;28;20057;-74
2021/10/06 03:37:50;;;;;;;10.35;1.90;;;;;;;10.53;80.16;100789.56;5011741;28;20038;-75
2021/10/06 03:40:15;;;;;;;10.52;2.13;;;;;;;10.57;80.12;100796.06;5031135;28;20033;-73
2021/10/06 03:42:41;;;;;;;16.77;2.50;;;;;;;10.48;80.58;100799.56;5018671;28;20068;-74
2021/10/06 03:45:09;;;;;;;13.45;2.38;;;;;;;10.50;80.44;100810.59;5016661;28;20442;-74
2021/10/06 03:47:35;;;;;;;10.75;1.85;;;;;;;10.47;80.74;100801.34;5019752;28;20038;-75
2021/10/06 03:50:01;;;;;;;13.80;2.42;;;;;;;10.38;80.83;100807.47;5007392;28;20036;-74
2021/10/06 03:52:26;;;;;;;12.60;1.65;;;;;;;10.58;80.19;100812.41;5019592;28;20060;-75
2021/10/06 03:54:51;;;;;;;8.38;1.92;;;;;;;10.65;79.98;100797.88;5015441;28;20047;-72
2021/10/06 03:57:17;;;;;;;10.85;2.17;;;;;;;10.60;79.77;100807.88;5019992;28;20242;-75
2021/10/06 03:59:42;;;;;;;11.07;1.98;;;;;;;10.56;79.60;100807.38;5007653;28;20026;-73
2021/10/06 04:02:09;;;;;;;15.02;2.83;;;;;;;10.56;79.28;100815.16;5018987;28;20034;-73
2021/10/06 04:04:34;;;;;;;10.38;1.90;;;;;;;10.49;79.91;100804.59;5009580;28;20036;-74
2021/10/06 04:07:00;;;;;;;15.00;2.55;;;;;;;10.50;79.78;100805.41;5023869;28;20037;-74
2021/10/06 04:09:25;;;;;;;15.60;1.75;;;;;;;10.59;79.66;100816.66;5005620;28;20468;-74
2021/10/06 04:11:51;;;;;;;13.82;3.20;;;;;;;10.57;79.08;100811.59;5021683;28;20478;-72
2021/10/06 04:14:16;;;;;;;11.65;2.20;;;;;;;10.53;79.86;100815.47;5009877;28;20018;-78
2021/10/06 04:16:42;;;;;;;15.75;2.63;;;;;;;10.52;80.10;100825.03;5023421;28;20044;-74
2021/10/06 04:19:07;;;;;;;11.32;1.85;;;;;;;10.59;80.00;100827.81;5010172;28;20040;-73
2021/10/06 04:21:33;;;;;;;13.20;2.15;;;;;;;10.63;79.72;100838.69;5012850;28;20037;-73
2021/10/06 04:23:59;;;;;;;12.85;2.58;;;;;;;10.63;79.29;100842.09;5012641;28;20469;-75
2021/10/06 04:26:24;;;;;;;17.60;3.05;;;;;;;10.57;80.04;100842.72;5021973;28;20676;-74
2021/10/06 04:28:50;;;;;;;13.30;2.17;;;;;;;10.66;79.28;100838.38;5006981;28;20032;-74
2021/10/06 04:31:19;;;;;;;12.32;2.30;;;;;;;10.53;80.06;100854.38;5015827;28;20061;-75
2021/10/06 04:33:44;;;;;;;10.10;1.70;;;;;;;10.59;79.12;100845.97;4993694;28;20029;-73
2021/10/06 04:36:10;;;;;;;18.00;2.55;;;;;;;10.60;79.62;100849.38;5024885;28;20036;-73
2021/10/06 04:38:35;;;;;;;13.48;2.00;;;;;;;10.60;79.80;100842.41;5014381;28;20032;-74
2021/10/06 04:41:01;;;;;;;9.05;2.50;;;;;;;10.71;79.44;100849.91;5017403;28;20046;-74
2021/10/06 04:43:27;;;;;;;17.10;2.10;;;;;;;10.54;80.10;100850.81;5012690;28;20438;-74
2021/10/06 04:45:52;;;;;;;10.85;1.63;;;;;;;10.70;79.18;100858.66;5010920;28;20469;-77
2021/10/06 04:48:17;;;;;;;15.95;2.20;;;;;;;10.77;78.67;100851.06;5013617;28;20139;-76
2021/10/06 04:50:43;;;;;;;13.32;1.95;;;;;;;10.77;78.46;100851.06;5012183;28;20060;-75
2021/10/06 04:53:09;;;;;;;6.88;1.67;;;;;;;10.78;78.35;100855.28;5010288;28;20041;-73
2021/10/06 04:55:34;;;;;;;13.65;1.25;;;;;;;10.84;78.10;100864.22;5009203;28;20041;-74
2021/10/06 04:57:59;;;;;;;7.18;1.58;;;;;;;10.81;78.26;100855.00;5018676;28;20037;-75
2021/10/06 05:00:25;;;;;;;4.65;1.10;;;;;;;10.70;78.45;100858.66;5008877;28;20434;-73
2021/10/06 05:02:51;;;;;;;10.25;1.50;;;;;;;10.73;77.65;100846.34;5009245;28;20052;-74
2021/10/06 05:05:17;;;;;;;9.90;1.30;;;;;;;10.78;78.00;100870.06;5011654;28;20033;-73
2021/10/06 05:07:42;;;;;;;10.18;1.55;;;;;;;10.78;77.55;100862.28;5013561;28;20095;-73
2021/10/06 05:10:08;;;;;;;14.73;1.30;;;;;;;10.71;78.01;100857.69;5011124;28;20034;-75
2021/10/06 05:12:33;;;;;;;12.57;2.17;;;;;;;10.67;78.32;100858.16;5008750;28;20180;-76
2021/10/06 05:14:59;;;;;;;8.38;1.27;;;;;;;10.71;78.12;100864.66;5011481;28;20511;-75
2021/10/06 05:17:24;;;;;;;8.45;1.65;;;;;;;10.71;77.76;100847.31;5010070;28;20038;-74
2021/10/06 05:19:50;;;;;;;13.38;2.08;;;;;;;10.80;77.50;100863.72;5018321;28;20033;-75
2021/10/06 05:22:16;;;;;;;9.95;1.20;;;;;;;10.64;77.92;100867.06;5012034;28;20176;-74
2021/10/06 05:24:42;;;;;;;11.13;1.73;;;;;;;10.64;77.78;100868.84;5011010;28;20120;-74
2021/10/06 05:27:07;;;;;;;13.05;2.47;;;;;;;10.69;77.73;100871.78;5006464;28;20423;-74
2021/10/06 05:29:33;;;;;;;16.23;1.48;;;;;;;10.76;77.07;100874.59;5011369;28;20029;-73
2021/10/06 05:32:03;;;;;;;6.65;1.25;;;;;;;10.81;77.12;100872.31;5012678;28;20029;-73
2021/10/06 05:34:30;;;;;;;7.63;2.15;;;;;;;10.67;77.69;100876.31;5012703;28;20099;-74
2021/10/06 05:36:55;;;;;;;13.68;1.75;;;;;;;10.78;77.29;100880.44;5011599;28;20399;-75
2021/10/06 05:39:21;;;;;;;6.82;1.20;;;;;;;10.82;76.57;100879.94;5014970;28;20049;-72
2021/10/06 05:41:46;;;;;;;11.88;1.35;;;;;;;10.84;77.53;100880.59;5011334;28;20037;-73
2021/10/06 05:44:11;;;;;;;5.63;1.33;;;;;;;10.77;78.19;100881.38;5014237;28;20041;-75
2021/10/06 05:46:37;;;;;;;9.55;1.63;;;;;;;10.71;79.49;100888.00;5009941;28;20044;-77
2021/10/06 05:49:02;;;;;;;11.18;1.30;;;;;;;10.67;79.73;100884.91;5011172;28;20021;-76
2021/10/06 05:51:28;;;;;;;14.23;1.77;;;;;;;10.78;80.16;100889.00;5012968;28;20041;-76
2021/10/06 05:53:53;;;;;;;6.13;1.42;;;;;;;10.59;81.13;100884.88;5016961;28;20074;-75
2021/10/06 05:56:19;;;;;;;8.10;1.65;;;;;;;10.63;81.50;100890.56;5010728;28;20119;-76
2021/10/06 05:58:44;;;;;;;9.25;1.50;;;;;;;10.62;82.04;100888.91;5018204;28;20087;-76
2021/10/06 06:01:10;;;;;;;8.98;1.35;;;;;;;10.46;82.46;100895.63;5009119;28;20513;-77
2021/10/06 06:03:35;;;;;;;11.60;1.67;;;;;;;10.43;82.58;100897.72;5016076;28;20406;-78
2021/10/06 06:06:01;;;;;;;10.25;2.00;;;;;;;10.46;82.82;100895.63;5007659;28;20033;-77
2021/10/06 06:08:26;;;;;;;17.23;1.77;;;;;;;10.41;83.20;100900.47;5006104;28;20064;-76
2021/10/06 06:10:52;;;;;;;12.07;2.10;;;;;;;10.35;83.59;100902.88;5011099;28;20053;-76
2021/10/06 06:13:17;;;;;;;15.63;1.88;;;;;;;10.45;83.96;100908.75;5012627;28;20033;-76
2021/10/06 06:15:43;;;;;;;7.43;1.63;;;;;;;10.35;84.28;100914.03;5025464;28;20565;-78
2021/10/06 06:18:08;;;;;;;12.48;1.80;;;;;;;10.36;85.02;100914.84;5013554;28;20037;-77
2021/10/06 06:20:34;;;;;;;8.85;2.55;;;;;;;10.22;85.54;100914.41;5000834;28;20033;-76
2021/10/06 06:22:59;;;;;;;7.32;1.80;;;;;;;10.24;86.10;100924.63;5018304;28;20041;-79
2021/10/06 06:25:25;;;;;;;10.02;1.60;;;;;;;10.12;86.16;100927.44;5009019;28;20084;-76
2021/10/06 06:27:50;;;;;;;7.53;1.88;;;;;;;10.07;86.50;100923.66;5019045;28;20782;-77
2021/10/06 06:30:16;;;;;;;13.75;2.17;;;;;;;10.05;87.06;100935.97;5012242;28;20502;-78
2021/10/06 06:32:41;;;;;;;11.25;1.85;;;;;;;10.18;86.58;100926.03;5009601;28;20120;-76
2021/10/06 06:35:08;;;;;;;14.55;1.80;;;;;;;10.16;87.04;100921.97;5007159;28;20056;-76
2021/10/06 06:37:33;;;;;;;12.93;2.35;;;;;;;10.09;87.10;100919.16;5013651;28;20036;-76
2021/10/06 06:39:59;;;;;;;11.77;1.75;;;;;;;10.04;87.60;100924.78;5008946;28;20026;-79
2021/10/06 06:42:25;;;;;;;15.20;3.08;;;;;;;10.05;87.86;100923.81;5018922;28;20064;-78
2021/10/06 06:44:50;;;;;;;9.52;1.60;;;;;;;10.10;87.08;100920.78;5013219;28;20499;-76
2021/10/06 06:47:16;;;;;;;12.68;1.52;;;;;;;10.01;87.81;100921.69;5025087;28;20446;-78
2021/10/06 06:49:41;;;;;;;7.90;1.45;;;;;;;10.02;86.92;100920.72;5011900;28;20030;-77
2021/10/06 06:52:07;;;;;;;7.90;1.80;;;;;;;10.09;87.34;100921.75;5016213;28;20042;-77
2021/10/06 06:54:32;;;;;;;8.15;1.73;;;;;;;10.04;87.08;100932.56;5010128;28;20512;-75
2021/10/06 06:56:58;;;;;;;11.65;2.40;;;;;;;9.93;87.48;100931.00;5010287;28;20305;-76
2021/10/06 06:59:23;;;;;;;17.90;2.50;;;;;;;9.91;87.76;100934.72;5008157;28;20022;-74
2021/10/06 07:01:49;;;;;;;8.90;1.52;;;;;;;9.97;87.46;100933.31;5018676;28;20037;-79
2021/10/06 07:04:15;;;;;;;7.40;1.30;;;;;;;9.99;87.25;100934.78;5017129;28;20083;-79
2021/10/06 07:06:41;;;;;;;11.45;1.48;;;;;;;10.01;87.19;100934.66;5010703;28;20109;-77
2021/10/06 07:09:07;;;;;;;10.57;1.40;;;;;;;9.92;87.49;100931.16;5014290;28;20379;-77
2021/10/06 07:11:33;;;;;;;7.63;1.42;;;;;;;9.94;87.70;100927.47;5013043;28;20038;-76
2021/10/06 07:13:59;;;;;;;7.00;1.50;;;;;;;9.93;87.69;100937.97;5015787;28;20422;-77
2021/10/06 07:16:25;;;;;;;9.70;2.00;;;;;;;10.04;87.94;100932.56;5011597;28;20611;-77
2021/10/06 07:18:50;;;;;;;10.75;1.95;;;;;;;10.11;87.82;100935.34;5011720;28;20041;-74
2021/10/06 07:21:16;;;;;;;7.03;1.83;;;;;;;10.08;87.57;100928.72;5007788;28;20033;-76
2021/10/06 07:23:41;;;;;;;13.75;1.75;;;;;;;10.17;87.38;100932.19;5012762;28;20030;-75
2021/10/06 07:26:07;;;;;;;7.55;1.90;;;;;;;10.26;87.06;100933.84;5015567;28;20040;-78
2021/10/06 07:28:33;;;;;;;6.93;1.95;;;;;;;10.17;86.83;100939.97;4997892;28;20054;-78
2021/10/06 07:30:59;;;;;;;10.25;1.83;;;;;;;10.13;87.37;100942.03;5012163;28;20409;-78
2021/10/06 07:33:25;;;;;;;6.15;1.40;;;;;;;10.12;87.05;100943.00;4994826;28;20210;-76
2021/10/06 07:35:50;;;;;;;7.50;1.65;;;;;;;10.11;87.53;100938.78;5009999;28;20553;-75
2021/10/06 07:38:16;;;;;;;7.90;1.27;;;;;;;10.04;87.27;100945.53;5013468;28;20041;-76
2021/10/06 07:40:41;;;;;;;8.18;1.85;;;;;;;10.07;86.98;100949.59;5011588;28;20041;-77
2021/10/06 07:43:08;;;;;;;8.10;1.83;;;;;;;10.11;86.52;100949.16;5018814;28;20033;-78
2021/10/06 07:45:34;;;;;;;10.02;2.15;;;;;;;10.08;86.68;100946.84;5006986;28;20053;-77
2021/10/06 07:48:00;;;;;;;9.80;1.50;;;;;;;10.19;86.76;100952.75;4999778;28;20617;-76
2021/10/06 07:50:26;;;;;;;10.15;1.40;;;;;;;10.14;86.38;100964.38;5008439;28;20126;-75
2021/10/06 07:52:52;;;;;;;7.70;1.65;;;;;;;10.26;85.83;100962.38;5011130;28;20034;-73
2021/10/06 07:55:17;;;;;;;11.38;1.90;;;;;;;10.40;85.88;100949.88;5008038;28;20025;-78
2021/10/06 07:57:44;;;;;;;10.32;1.80;;;;;;;10.49;85.17;100954.16;5030537;28;20041;-77
2021/10/06 08:00:10;;;;;;;9.35;1.42;;;;;;;10.46;84.67;100962.25;5014579;28;20386;-76
2021/10/06 08:02:39;;;;;;;8.25;1.58;;;;;;;10.50;84.96;100958.38;4994763;28;20445;-76
2021/10/06 08:05:05;;;;;;;5.75;1.38;;;;;;;10.55;84.90;100952.72;5025378;28;20038;-75
2021/10/06 08:07:30;;;;;;;10.95;1.83;;;;;;;10.55;85.06;100976.91;5008614;28;20030;-75
2021/10/06 08:09:56;;;;;;;8.00;1.40;;;;;;;10.54;84.67;100962.28;5009664;28;20044;-77
2021/10/06 08:12:21;;;;;;;10.50;1.60;;;;;;;10.51;84.28;100960.81;5008861;28;20045;-76
2021/10/06 08:14:47;;;;;;;13.48;1.52;;;;;;;10.50;84.25;100966.16;5012397;28;20045;-77
2021/10/06 08:17:14;;;;;;;5.75;1.23;;;;;;;10.54;84.24;100972.66;5009567;28;20443;-74
2021/10/06 08:19:39;;;;;;;9.98;1.55;;;;;;;10.60;83.85;100971.25;4994762;28;20100;-76
2021/10/06 08:22:05;;;;;;;8.02;1.13;;;;;;;10.64;84.52;100970.81;5010825;28;20438;-76
2021/10/06 08:24:30;;;;;;;9.57;1.63;;;;;;;10.67;84.41;100980.03;4996692;28;20270;-75
2021/10/06 08:26:56;;;;;;;5.00;0.93;;;;;;;10.77;83.95;100978.16;5009470;28;20030;-76
2021/10/06 08:29:21;;;;;;;6.32;1.60;;;;;;;10.74;83.08;100995.78;5016182;28;20018;-74
2021/10/06 08:31:47;;;;;;;6.97;2.05;;;;;;;10.72;83.39;100990.78;5016808;28;20057;-76
2021/10/06 08:34:12;;;;;;;14.75;1.60;;;;;;;10.79;83.09;100988.38;5004635;28;20044;-75
2021/10/06 08:36:38;;;;;;;7.15;1.20;;;;;;;10.78;82.93;100995.34;5014972;28;20042;-75
2021/10/06 08:39:08;;;;;;;9.25;1.77;;;;;;;10.78;83.81;100997.94;5011845;28;20454;-75
2021/10/06 08:41:34;;;;;;;8.70;1.83;;;;;;;10.83;83.13;100998.31;5021978;28;20052;-75
2021/10/06 08:44:00;;;;;;;9.48;1.30;;;;;;;10.88;83.38;101001.25;5007774;28;20528;-75
2021/10/06 08:46:27;;;;;;;8.63;1.67;;;;;;;10.83;84.21;101013.88;5013897;28;20080;-75
2021/10/06 08:48:53;;;;;;;4.85;1.63;;;;;;;10.69;84.35;101007.44;5019075;28;20121;-75
2021/10/06 08:51:21;;;;;;;7.13;1.25;;;;;;;10.67;84.94;101011.97;5010951;28;20403;-76
2021/10/06 08:53:48;;;;;;;7.25;1.25;;;;;;;10.69;85.04;101006.63;5011095;28;20037;-76
2021/10/06 08:56:13;;;;;;;9.30;1.30;;;;;;;10.59;85.89;101019.69;5009366;28;20038;-75
2021/10/06 08:58:39;;;;;;;6.25;1.40;;;;;;;10.82;85.03;101029.59;5012493;28;20104;-77
2021/10/06 09:01:04;;;;;;;6.07;2.50;;;;;;;10.79;85.14;101020.31;5012144;28;20419;-74
2021/10/06 09:03:32;;;;;;;5.05;1.08;;;;;;;10.84;85.42;101043.22;5009047;28;20017;-76
2021/10/06 09:06:13;;;;;;;6.30;2.00;;;;;;;10.70;85.38;101039.41;5009631;28;20826;-75
2021/10/06 09:08:44;;;;;;;5.90;1.20;;;;;;;10.71;85.40;101030.63;5007229;28;20116;-78
2021/10/06 09:11:12;;;;;;;7.38;1.40;;;;;;;10.79;85.58;101028.09;5023976;28;20025;-76
2021/10/06 09:13:40;;;;;;;3.25;1.50;;;;;;;10.73;85.52;101046.06;5024579;28;20029;-74
2021/10/06 09:16:06;;;;;;;6.47;1.33;;;;;;;10.66;86.27;101036.28;5015507;28;20045;-77
2021/10/06 09:18:33;;;;;;;4.05;1.55;;;;;;;10.87;86.52;101038.53;5010853;28;20041;-75
2021/10/06 09:21:06;;;;;;;7.95;1.50;;;;;;;10.73;85.79;101049.47;5011075;28;20092;-76
2021/10/06 09:23:39;;;;;;;4.03;1.58;;;;;;;10.81;86.39;101041.75;5011604;28;20037;-75
2021/10/06 09:26:10;;;;;;;9.23;1.65;;;;;;;10.69;87.66;101053.31;5013348;28;20960;-76
2021/10/06 09:28:42;;;;;;;3.53;1.17;;;;;;;10.58;87.21;101056.16;5019734;28;20124;-76
2021/10/06 09:31:11;;;;;;;2.22;0.98;;;;;;;10.54;87.28;101063.41;5006921;28;20092;-74
2021/10/06 09:33:39;;;;;;;2.33;1.10;;;;;;;10.63;88.51;101059.91;5012904;28;20028;-76
2021/10/06 09:36:07;;;;;;;7.85;1.65;;;;;;;10.55;88.08;101065.06;5011303;28;20038;-75
2021/10/06 09:38:54;;;;;;;8.57;1.52;;;;;;;10.44;88.43;101073.06;5014261;28;20026;-75
2021/10/06 09:41:35;;;;;;;4.88;1.73;;;;;;;10.47;88.97;101073.56;4995129;28;20076;-78
2021/10/06 09:44:09;;;;;;;5.43;1.50;;;;;;;10.48;88.78;101082.97;5015313;28;20087;-76
2021/10/06 09:46:47;;;;;;;12.85;2.15;;;;;;;10.55;88.90;101075.41;5010921;28;20411;-77
2021/10/06 09:49:36;;;;;;;6.30;1.58;;;;;;;10.56;88.85;101084.00;5010142;28;20087;-76
2021/10/06 09:52:24;;;;;;;6.30;1.75;;;;;;;10.55;89.07;101090.97;5022800;28;20052;-75
2021/10/06 09:55:06;;;;;;;4.72;1.52;;;;;;;10.48;89.45;101095.13;5006873;28;20053;-77
2021/10/06 09:57:34;;;;;;;6.53;1.98;;;;;;;10.60;88.92;101093.13;4997915;28;20193;-76
2021/10/06 10:00:04;;;;;;;6.53;1.88;;;;;;;10.63;88.33;101100.59;5007662;28;20029;-76
2021/10/06 10:02:37;;;;;;;7.53;2.00;;;;;;;10.74;89.04;101099.53;5013418;28;20538;-77
2021/10/06 10:05:05;;;;;;;3.85;1.17;;;;;;;10.69;89.00;101105.19;5010346;28;20084;-75
2021/10/06 10:07:30;;;;;;;4.57;1.38;;;;;;;10.62;89.15;101104.97;5011361;28;20113;-77
2021/10/06 10:09:56;;;;;;;6.30;1.40;;;;;;;10.68;88.84;101113.91;5016456;28;20037;-77
2021/10/06 10:12:24;;;;;;;6.65;1.40;;;;;;;10.65;88.76;101109.06;5009348;28;20072;-77
2021/10/06 10:14:50;;;;;;;8.95;1.60;;;;;;;10.64;88.72;101110.00;5010730;28;20414;-78
2021/10/06 10:17:21;;;;;;;12.98;2.22;;;;;;;10.65;89.10;101116.84;4991421;28;20052;-77
2021/10/06 10:19:53;;;;;;;4.47;1.63;;;;;;;10.58;89.32;101123.56;5026192;28;20046;-77
2021/10/06 10:22:20;;;;;;;3.58;1.50;;;;;;;10.77;89.15;101138.97;5008130;28;20040;-77
2021/10/06 10:24:48;;;;;;;6.93;1.50;;;;;;;10.76;89.04;101137.34;5007696;28;20045;-76
2021/10/06 10:27:24;;;;;;;4.93;1.60;;;;;;;10.77;89.15;101135.56;4989355;28;20037;-76
2021/10/06 10:29:56;;;;;;;5.90;1.90;;;;;;;10.74;89.32;101138.44;5004211;28;20030;-78
2021/10/06 10:32:24;;;;;;;3.78;1.70;;;;;;;10.73;89.30;101137.63;5001153;28;20359;-75
2021/10/06 10:35:09;;;;;;;6.93;1.50;;;;;;;10.78;88.96;101145.81;5007945;28;20046;-78
2021/10/06 10:37:47;;;;;;;7.68;1.58;;;;;;;10.76;89.50;101139.16;5024309;28;20037;-75
2021/10/06 10:40:33;;;;;;;6.60;1.52;;;;;;;10.84;89.24;101137.41;5011068;28;20038;-78
2021/10/06 10:43:14;;;;;;;4.38;1.58;;;;;;;10.89;88.94;101139.56;4984769;28;20052;-77
2021/10/06 10:46:07;;;;;;;11.57;2.25;;;;;;;10.91;89.36;101146.25;4988954;28;20066;-76
2021/10/06 10:48:39;;;;;;;10.65;1.90;;;;;;;10.93;89.71;101146.09;4998792;28;20081;-81
2021/10/06 10:51:07;;;;;;;7.90;2.00;;;;;;;11.02;89.07;101155.56;5004857;28;20132;-78
2021/10/06 10:53:51;;;;;;;4.45;1.58;;;;;;;10.99;89.18;101155.06;5013917;28;20033;-77
2021/10/06 10:56:40;;;;;;;5.22;1.60;;;;;;;11.02;89.24;101152.97;5007972;28;20045;-79
2021/10/06 10:59:13;;;;;;;3.33;1.90;;;;;;;11.03;89.03;101158.97;4999538;28;20041;-77
2021/10/06 11:01:45;;;;;;;5.00;2.00;;;;;;;11.09;88.54;101156.59;5003509;28;20040;-77
2021/10/06 11:04:23;;;;;;;4.60;1.80;;;;;;;11.05;88.48;101162.22;5007078;28;20042;-77
2021/10/06 11:06:51;;;;;;;5.22;2.08;;;;;;;11.04;88.29;101161.44;5013351;28;20041;-80
2021/10/06 11:09:29;;;;;;;4.82;2.10;;;;;;;10.98;88.53;101167.22;5003505;28;20565;-79
2021/10/06 11:11:56;;;;;;;3.10;1.85;;;;;;;11.06;88.90;101169.06;5011230;28;20072;-77
2021/10/06 11:14:22;;;;;;;3.97;2.40;;;;;;;11.00;88.77;101169.66;5004744;28;20449;-75
2021/10/06 11:17:09;;;;;;;6.43;2.28;;;;;;;11.07;89.15;101171.50;5006288;28;20160;-76
2021/10/06 11:19:51;;;;;;;6.38;2.50;;;;;;;11.12;89.05;101178.03;5007195;28;20072;-75
2021/10/06 11:22:23;;;;;;;4.68;2.42;;;;;;;11.37;88.28;101176.44;4989247;28;20124;-76